Ocean City, Maryland
Current Conditions -  °F | °C
As of 12:53 PM on Thursday 23 Oct 2014 (Local Time) from KOXB Reporting Station
Overcast Overcast  
Wind Chill: 13°   Ceiling: 2500
Heat Index: 13°   Visibility: 10mi
Dew Point:   Wind: 13mph
Humidity: 72%   Direction: 310°NW
Pressure: 29.78"   Gusts: 20mph
Location:  38.34°N, 75.08°W
Report Text: KOXB 231653Z AUTO 31011G17KT 10SM OVC025 13/08 A2978 RMK AO2 SLP084 T01330083 TSNO
Loading
Personal Weather Stations






























Interactive Weather Map
Tropical Storm Tracking
New forecast layout! Learn more

10-Day Weather Forecast

Advertisements
Track Severe Weather on mobile